Time;durP1;ratioP1;P1;durP2;ratioP2;P2;SDS_P1;SDS_P2;PMS_P1;PMS_P2;Temp;Humidity;BMP_temperature;BMP_pressure;BME280_temperature;BME280_humidity;BME280_pressure;Samples;Min_cycle;Max_cycle;Signal;HPM_P1;HPM_P2
2021/01/18 00:00:10;;;;;;;;;;;3.20;99.90;;;;;;12257646;28;20386;-83
2021/01/18 00:06:15;;;;;;;;;;;3.10;99.90;;;;;;12248064;28;20017;-84
2021/01/18 00:12:16;;;;;;;;;;;3.00;99.90;;;;;;12265234;28;19962;-83
2021/01/18 00:18:17;;;;;;;;;;;3.10;99.90;;;;;;12233747;28;19980;-84
2021/01/18 00:24:19;;;;;;;;;;;3.10;99.90;;;;;;12236626;28;19997;-83
2021/01/18 00:30:21;;;;;;;;;;;3.20;99.90;;;;;;12250967;28;19934;-83
2021/01/18 00:36:22;;;;;;;;;;;3.20;99.90;;;;;;12258246;28;20013;-83
2021/01/18 00:42:23;;;;;;;;;;;3.40;99.90;;;;;;12244991;28;20351;-83
2021/01/18 00:48:24;;;;;;;;;;;3.50;99.90;;;;;;12224532;28;20011;-83
2021/01/18 00:54:26;;;;;;;;;;;3.60;99.90;;;;;;12264369;28;19930;-83
2021/01/18 01:00:28;;;;;;;;;;;3.60;99.90;;;;;;12246762;28;19954;-83
2021/01/18 01:06:33;;;;;;;;;;;3.70;99.90;;;;;;12254921;28;19938;-83
2021/01/18 01:12:34;;;;;;;;;;;3.70;99.90;;;;;;12261728;28;20025;-84
2021/01/18 01:18:35;;;;;;;;;;;3.70;99.90;;;;;;12250478;28;20401;-86
2021/01/18 01:24:37;;;;;;;;;;;3.70;99.90;;;;;;12228095;28;20032;-84
2021/01/18 01:30:38;;;;;;;;;;;3.80;99.90;;;;;;12224842;28;20437;-84
2021/01/18 01:36:43;;;;;;;;;;;3.80;99.90;;;;;;12203196;28;20062;-84
2021/01/18 01:42:44;;;;;;;;;;;3.80;99.90;;;;;;12234888;28;20490;-83
2021/01/18 01:48:45;;;;;;;;;;;3.80;99.90;;;;;;12228301;28;19973;-83
2021/01/18 01:54:49;;;;;;;;;;;3.80;99.90;;;;;;12236404;28;19927;-83
2021/01/18 02:00:52;;;;;;;;;;;3.60;99.90;;;;;;12236587;28;19931;-83
2021/01/18 02:06:53;;;;;;;;;;;3.60;99.90;;;;;;12227353;28;20062;-83
2021/01/18 02:12:57;;;;;;;;;;;3.60;99.90;;;;;;12207804;28;20025;-83
2021/01/18 02:19:10;;;;;;;;;;;3.50;99.90;;;;;;12197549;28;19992;-85
2021/01/18 02:25:11;;;;;;;;;;;3.50;99.90;;;;;;12232523;28;19985;-84
2021/01/18 02:31:28;;;;;;;;;;;3.40;99.90;;;;;;12236935;28;19936;-83
2021/01/18 02:37:40;;;;;;;;;;;3.40;99.90;;;;;;12234755;28;20263;-84
2021/01/18 02:43:49;;;;;;;;;;;3.40;99.90;;;;;;12234962;28;19939;-83
2021/01/18 02:49:51;;;;;;;;;;;3.50;99.90;;;;;;12244837;28;19961;-83
2021/01/18 02:55:53;;;;;;;;;;;3.40;99.90;;;;;;12254055;28;19933;-84
2021/01/18 03:02:02;;;;;;;;;;;3.40;99.90;;;;;;12262314;28;19930;-82
2021/01/18 03:08:06;;;;;;;;;;;3.40;99.90;;;;;;12232251;28;20401;-83
2021/01/18 03:14:14;;;;;;;;;;;3.40;99.90;;;;;;12255052;28;20359;-84
2021/01/18 03:20:17;;;;;;;;;;;3.30;99.90;;;;;;12235711;28;20370;-83
2021/01/18 03:26:22;;;;;;;;;;;3.10;99.90;;;;;;12246569;28;20264;-83
2021/01/18 03:32:23;;;;;;;;;;;3.10;99.90;;;;;;12259315;28;19930;-84
2021/01/18 03:38:24;;;;;;;;;;;3.10;99.90;;;;;;12253533;28;19926;-83
2021/01/18 03:44:26;;;;;;;;;;;3.40;99.90;;;;;;12250536;28;20013;-83
2021/01/18 03:50:28;;;;;;;;;;;3.50;99.90;;;;;;12221729;28;19926;-84
2021/01/18 03:56:30;;;;;;;;;;;3.40;99.90;;;;;;12252577;28;20747;-83
2021/01/18 04:02:31;;;;;;;;;;;3.50;99.90;;;;;;12227436;28;19946;-83
2021/01/18 04:08:32;;;;;;;;;;;3.40;99.90;;;;;;12222709;28;20137;-83
2021/01/18 04:14:33;;;;;;;;;;;3.20;99.90;;;;;;12212911;28;20746;-83
2021/01/18 04:20:34;;;;;;;;;;;3.30;99.90;;;;;;12201597;28;20022;-83
2021/01/18 04:26:39;;;;;;;;;;;3.20;99.90;;;;;;12231686;28;20081;-83
2021/01/18 04:32:40;;;;;;;;;;;3.20;99.90;;;;;;12263558;28;19934;-83
2021/01/18 04:38:41;;;;;;;;;;;3.30;99.90;;;;;;12261583;28;20407;-84
2021/01/18 04:44:43;;;;;;;;;;;3.10;99.90;;;;;;12244753;28;19974;-83
2021/01/18 04:50:44;;;;;;;;;;;3.40;99.90;;;;;;12241687;28;19985;-83
2021/01/18 04:56:45;;;;;;;;;;;3.30;99.90;;;;;;12262936;28;19935;-83
2021/01/18 05:02:52;;;;;;;;;;;3.20;99.90;;;;;;12260983;28;20021;-83
2021/01/18 05:09:12;;;;;;;;;;;3.30;99.90;;;;;;12243114;28;19966;-83
2021/01/18 05:15:13;;;;;;;;;;;3.40;99.90;;;;;;12266835;28;21776;-84
2021/01/18 05:21:16;;;;;;;;;;;3.40;99.90;;;;;;12258888;28;20416;-84
2021/01/18 05:27:18;;;;;;;;;;;3.40;99.90;;;;;;12255855;28;20433;-84
2021/01/18 05:33:19;;;;;;;;;;;3.30;99.90;;;;;;12267460;28;20038;-84
2021/01/18 05:39:21;;;;;;;;;;;3.10;99.90;;;;;;12262677;28;19977;-85
2021/01/18 05:45:27;;;;;;;;;;;3.10;99.90;;;;;;12251520;28;19965;-84
2021/01/18 05:51:29;;;;;;;;;;;3.30;99.90;;;;;;12218271;28;20009;-83
2021/01/18 05:57:30;;;;;;;;;;;3.40;99.90;;;;;;12263020;28;20029;-84
2021/01/18 06:03:32;;;;;;;;;;;3.30;99.90;;;;;;12233998;28;19934;-84
2021/01/18 06:09:44;;;;;;;;;;;3.00;99.90;;;;;;12259522;28;19941;-84
2021/01/18 06:15:46;;;;;;;;;;;3.00;99.90;;;;;;12256187;28;19966;-84
2021/01/18 06:21:48;;;;;;;;;;;2.90;99.90;;;;;;12264376;28;19943;-84
2021/01/18 06:27:50;;;;;;;;;;;2.90;99.90;;;;;;12266526;28;19938;-83
2021/01/18 06:33:51;;;;;;;;;;;3.10;99.90;;;;;;12269316;28;20378;-84
2021/01/18 06:39:57;;;;;;;;;;;3.00;99.90;;;;;;12241474;28;19953;-83
2021/01/18 06:45:58;;;;;;;;;;;2.90;99.90;;;;;;12256180;28;19985;-84
2021/01/18 06:52:00;;;;;;;;;;;3.00;99.90;;;;;;12219364;28;19934;-84
2021/01/18 06:58:01;;;;;;;;;;;3.20;99.90;;;;;;12266511;28;19957;-84
2021/01/18 07:04:09;;;;;;;;;;;3.20;99.90;;;;;;12249506;28;19973;-84
2021/01/18 07:10:11;;;;;;;;;;;3.20;99.90;;;;;;12241870;28;19957;-83
2021/01/18 07:16:16;;;;;;;;;;;3.20;99.90;;;;;;12254143;28;20282;-84
2021/01/18 07:22:27;;;;;;;;;;;3.20;99.90;;;;;;12229606;28;19934;-84
2021/01/18 07:28:42;;;;;;;;;;;3.30;99.90;;;;;;12242790;28;19926;-84
2021/01/18 07:34:44;;;;;;;;;;;3.30;99.90;;;;;;12260494;28;19970;-85
2021/01/18 07:41:03;;;;;;;;;;;3.40;99.90;;;;;;12262201;28;19938;-82
2021/01/18 07:47:09;;;;;;;;;;;3.30;99.90;;;;;;12242442;28;19976;-83
2021/01/18 07:53:11;;;;;;;;;;;3.40;99.90;;;;;;12250499;28;20376;-84
2021/01/18 07:59:16;;;;;;;;;;;3.50;99.90;;;;;;12254388;28;19930;-84
2021/01/18 08:05:21;;;;;;;;;;;3.40;99.90;;;;;;12250987;28;19977;-84
2021/01/18 08:11:24;;;;;;;;;;;3.70;99.90;;;;;;12236699;28;20068;-83
2021/01/18 08:17:25;;;;;;;;;;;3.70;99.90;;;;;;12247384;28;20327;-84
2021/01/18 08:23:42;;;;;;;;;;;3.60;99.90;;;;;;12268965;28;19927;-83
2021/01/18 08:29:50;;;;;;;;;;;3.50;99.90;;;;;;12265731;28;20290;-85
2021/01/18 08:35:52;;;;;;;;;;;3.60;99.90;;;;;;12254844;28;19966;-84
2021/01/18 08:41:53;;;;;;;;;;;3.60;99.90;;;;;;12251563;28;20000;-82
2021/01/18 08:47:58;;;;;;;;;;;3.60;99.90;;;;;;12253891;28;20457;-82
2021/01/18 08:54:00;;;;;;;;;;;3.60;99.90;;;;;;12257413;28;19927;-83
2021/01/18 09:00:06;;;;;;;;;;;3.60;99.90;;;;;;12261828;28;20911;-82
2021/01/18 09:06:08;;;;;;;;;;;3.70;99.90;;;;;;12262928;28;20271;-83
2021/01/18 09:12:10;;;;;;;;;;;3.70;99.90;;;;;;12251792;28;19941;-83
2021/01/18 09:18:11;;;;;;;;;;;3.70;99.90;;;;;;12270643;28;19927;-83
2021/01/18 09:24:14;;;;;;;;;;;3.90;99.90;;;;;;12246667;28;19926;-82
2021/01/18 09:30:17;;;;;;;;;;;3.90;99.90;;;;;;12249122;28;19937;-83
2021/01/18 09:36:19;;;;;;;;;;;3.80;99.90;;;;;;12263146;28;20385;-82
2021/01/18 09:42:21;;;;;;;;;;;3.80;99.90;;;;;;12267372;28;20077;-83
2021/01/18 09:48:24;;;;;;;;;;;4.00;99.90;;;;;;12233787;28;20029;-83
2021/01/18 09:54:26;;;;;;;;;;;4.20;99.90;;;;;;12264454;28;19926;-82
2021/01/18 10:00:30;;;;;;;;;;;4.10;99.90;;;;;;12256645;28;19969;-83
2021/01/18 10:06:33;;;;;;;;;;;4.00;99.90;;;;;;12252944;28;19969;-82
2021/01/18 10:12:37;;;;;;;;;;;4.00;99.90;;;;;;12256580;28;19996;-84
2021/01/18 10:18:41;;;;;;;;;;;4.00;99.90;;;;;;12258339;28;19962;-83
2021/01/18 10:24:53;;;;;;;;;;;4.10;99.90;;;;;;12231495;28;20442;-82
2021/01/18 10:30:54;;;;;;;;;;;4.20;99.90;;;;;;12261492;28;19969;-84
2021/01/18 10:36:56;;;;;;;;;;;4.30;99.90;;;;;;12249206;28;20160;-84
2021/01/18 10:43:02;;;;;;;;;;;4.30;99.90;;;;;;12255378;28;20463;-83
2021/01/18 10:49:03;;;;;;;;;;;4.20;99.90;;;;;;12241363;28;20310;-84
2021/01/18 10:55:05;;;;;;;;;;;4.30;99.90;;;;;;12241200;28;19972;-83
2021/01/18 11:01:17;;;;;;;;;;;4.30;99.90;;;;;;12265689;28;19930;-84
2021/01/18 11:07:18;;;;;;;;;;;4.60;99.90;;;;;;12226993;28;19927;-84
2021/01/18 11:13:20;;;;;;;;;;;4.50;99.90;;;;;;12242088;28;20355;-82
2021/01/18 11:19:22;;;;;;;;;;;4.50;99.90;;;;;;12251447;28;20008;-83
2021/01/18 11:25:23;;;;;;;;;;;4.60;99.90;;;;;;12253087;28;19926;-82
2021/01/18 11:31:24;;;;;;;;;;;4.60;99.90;;;;;;12251538;28;20107;-82
2021/01/18 11:37:25;;;;;;;;;;;4.60;99.90;;;;;;12264651;28;20331;-84
2021/01/18 11:43:27;;;;;;;;;;;4.70;99.90;;;;;;12243787;28;20401;-84
2021/01/18 11:49:28;;;;;;;;;;;4.70;99.90;;;;;;12224888;28;19934;-83
2021/01/18 11:55:29;;;;;;;;;;;4.80;99.90;;;;;;12244853;28;20449;-82
2021/01/18 12:01:31;;;;;;;;;;;4.60;99.90;;;;;;12261799;28;19930;-82
2021/01/18 12:07:32;;;;;;;;;;;4.70;99.90;;;;;;12242823;28;19930;-82
2021/01/18 12:13:33;;;;;;;;;;;4.70;99.90;;;;;;12245991;28;19927;-83
2021/01/18 12:19:34;;;;;;;;;;;4.70;99.90;;;;;;12236747;28;20121;-83
2021/01/18 12:25:35;;;;;;;;;;;4.70;99.90;;;;;;12249120;28;20033;-82
2021/01/18 12:31:37;;;;;;;;;;;4.70;99.90;;;;;;12247450;28;20025;-82
2021/01/18 12:37:38;;;;;;;;;;;4.70;99.90;;;;;;12247914;28;19934;-85
2021/01/18 12:43:39;;;;;;;;;;;4.70;99.90;;;;;;12249905;28;19930;-83
2021/01/18 12:49:40;;;;;;;;;;;4.90;99.90;;;;;;12241825;28;19927;-83
2021/01/18 12:55:42;;;;;;;;;;;5.00;99.90;;;;;;12247681;28;19934;-84
2021/01/18 13:01:43;;;;;;;;;;;5.00;99.90;;;;;;12242588;28;19931;-82
2021/01/18 13:07:51;;;;;;;;;;;5.10;99.90;;;;;;12257418;28;19981;-83
2021/01/18 13:13:52;;;;;;;;;;;5.00;99.90;;;;;;12237541;28;19934;-82
2021/01/18 13:19:54;;;;;;;;;;;4.90;99.90;;;;;;12251906;28;20029;-83
2021/01/18 13:25:55;;;;;;;;;;;5.10;99.90;;;;;;12249491;28;19974;-84
2021/01/18 13:31:56;;;;;;;;;;;5.10;99.90;;;;;;12243429;28;19937;-83
2021/01/18 13:37:58;;;;;;;;;;;5.10;99.90;;;;;;12236509;28;19926;-83
2021/01/18 13:43:59;;;;;;;;;;;5.10;99.90;;;;;;12254062;28;19965;-83
2021/01/18 13:50:00;;;;;;;;;;;5.10;99.90;;;;;;12269286;28;19931;-83
2021/01/18 13:56:01;;;;;;;;;;;4.90;99.90;;;;;;12253618;28;20268;-84
2021/01/18 14:02:03;;;;;;;;;;;4.90;99.90;;;;;;12249221;28;19938;-83
2021/01/18 14:08:23;;;;;;;;;;;4.70;99.90;;;;;;12260734;28;19934;-85
2021/01/18 14:14:24;;;;;;;;;;;4.60;99.90;;;;;;12243334;28;19954;-84
2021/01/18 14:20:26;;;;;;;;;;;4.40;99.90;;;;;;12214363;28;20365;-83
2021/01/18 14:26:31;;;;;;;;;;;4.30;99.90;;;;;;12272896;28;19935;-83
2021/01/18 14:32:32;;;;;;;;;;;4.20;99.90;;;;;;12251500;28;20398;-83
2021/01/18 14:38:34;;;;;;;;;;;4.30;99.90;;;;;;12257790;28;20437;-84
2021/01/18 14:44:35;;;;;;;;;;;4.30;99.90;;;;;;12242364;28;20024;-83
2021/01/18 14:50:36;;;;;;;;;;;4.40;99.90;;;;;;12246530;28;20189;-83
2021/01/18 14:56:37;;;;;;;;;;;4.40;99.90;;;;;;12233472;28;19986;-85
2021/01/18 15:02:40;;;;;;;;;;;4.40;99.90;;;;;;12251790;28;20021;-83
2021/01/18 15:08:42;;;;;;;;;;;4.30;99.90;;;;;;12250259;28;20454;-85
2021/01/18 15:14:43;;;;;;;;;;;4.30;99.90;;;;;;12243271;28;20256;-84
2021/01/18 15:20:47;;;;;;;;;;;4.30;99.90;;;;;;12232045;28;20013;-84
2021/01/18 15:26:48;;;;;;;;;;;4.40;99.90;;;;;;12264451;28;20068;-84
2021/01/18 15:32:49;;;;;;;;;;;4.30;99.90;;;;;;12248052;28;19956;-83
2021/01/18 15:38:51;;;;;;;;;;;4.40;99.90;;;;;;12261838;28;20374;-83
2021/01/18 15:44:52;;;;;;;;;;;4.50;99.90;;;;;;12224507;28;20422;-83
2021/01/18 15:50:54;;;;;;;;;;;4.50;99.90;;;;;;12254094;28;20492;-84
2021/01/18 15:56:57;;;;;;;;;;;4.50;99.90;;;;;;12218986;28;20025;-84
2021/01/18 16:02:59;;;;;;;;;;;4.40;99.90;;;;;;12232309;28;19934;-84
2021/01/18 16:09:01;;;;;;;;;;;4.40;99.90;;;;;;12337622;22;19926;-92
2021/01/18 16:15:06;;;;;;;;;;;4.30;99.90;;;;;;12388064;28;19932;-93
2021/01/18 16:21:08;;;;;;;;;;;4.40;99.90;;;;;;12399123;28;19936;-93
2021/01/18 16:27:11;;;;;;;;;;;4.50;99.90;;;;;;12401931;28;19945;-91
2021/01/18 16:33:12;;;;;;;;;;;4.60;99.90;;;;;;12405645;28;19925;-92
2021/01/18 16:39:13;;;;;;;;;;;4.60;99.90;;;;;;12410071;28;19929;-91
2021/01/18 16:45:15;;;;;;;;;;;4.70;99.90;;;;;;12404603;28;19936;-90
2021/01/18 16:51:17;;;;;;;;;;;4.60;99.90;;;;;;12399740;28;20028;-91
2021/01/18 16:57:21;;;;;;;;;;;4.60;99.90;;;;;;12400293;28;20604;-91
2021/01/18 17:03:23;;;;;;;;;;;4.50;99.90;;;;;;12385894;28;20067;-90
2021/01/18 17:09:26;;;;;;;;;;;4.60;99.90;;;;;;12396835;28;19931;-90
2021/01/18 17:15:27;;;;;;;;;;;4.50;99.90;;;;;;12397526;28;19933;-90
2021/01/18 17:21:28;;;;;;;;;;;4.50;99.90;;;;;;12426885;28;19937;-90
2021/01/18 17:27:29;;;;;;;;;;;4.50;99.90;;;;;;12395006;28;20270;-90
2021/01/18 17:33:31;;;;;;;;;;;4.50;99.90;;;;;;12393230;28;19964;-90
2021/01/18 17:39:32;;;;;;;;;;;4.60;99.90;;;;;;12424475;28;19930;-90
2021/01/18 17:45:33;;;;;;;;;;;4.60;99.90;;;;;;12399434;28;20300;-91
2021/01/18 17:51:35;;;;;;;;;;;4.50;99.90;;;;;;12396493;28;19930;-91
2021/01/18 17:57:36;;;;;;;;;;;4.60;99.90;;;;;;12398774;28;20072;-91
2021/01/18 18:03:37;;;;;;;;;;;4.60;99.90;;;;;;12390259;28;19965;-91
2021/01/18 18:09:40;;;;;;;;;;;4.50;99.90;;;;;;12391947;28;19940;-92
2021/01/18 18:15:41;;;;;;;;;;;4.40;99.90;;;;;;12393228;28;19937;-91
2021/01/18 18:21:42;;;;;;;;;;;4.30;99.90;;;;;;12411711;28;20032;-91
2021/01/18 18:27:45;;;;;;;;;;;4.40;99.90;;;;;;12392515;28;19929;-92
2021/01/18 18:33:46;;;;;;;;;;;4.40;99.90;;;;;;12394484;28;19929;-92
2021/01/18 18:39:48;;;;;;;;;;;4.50;99.90;;;;;;12397941;28;19929;-92
2021/01/18 18:45:50;;;;;;;;;;;4.50;99.90;;;;;;12387089;28;19925;-92
2021/01/18 18:51:53;;;;;;;;;;;4.70;99.90;;;;;;12389894;28;19933;-92
2021/01/18 18:57:54;;;;;;;;;;;4.70;99.90;;;;;;12392433;28;19929;-92
2021/01/18 19:03:56;;;;;;;;;;;4.80;99.90;;;;;;12393525;28;19936;-93
2021/01/18 19:09:57;;;;;;;;;;;5.00;99.90;;;;;;12393239;28;20087;-92
2021/01/18 19:15:58;;;;;;;;;;;4.80;99.90;;;;;;12391800;28;20018;-92
2021/01/18 19:22:00;;;;;;;;;;;4.60;99.90;;;;;;12409050;28;19929;-92
2021/01/18 19:28:01;;;;;;;;;;;4.70;99.90;;;;;;12394466;28;19933;-92
2021/01/18 19:34:03;;;;;;;;;;;4.80;99.90;;;;;;12395612;28;19932;-92
2021/01/18 19:40:06;;;;;;;;;;;4.70;99.90;;;;;;12408935;28;19926;-92
2021/01/18 19:46:07;;;;;;;;;;;4.50;99.90;;;;;;12396402;28;19930;-92
2021/01/18 19:52:15;;;;;;;;;;;4.60;99.90;;;;;;12389158;28;19926;-93
2021/01/18 19:58:16;;;;;;;;;;;4.60;99.90;;;;;;12398145;28;19929;-92
2021/01/18 20:04:17;;;;;;;;;;;4.60;99.90;;;;;;12401792;28;19929;-91
2021/01/18 20:10:19;;;;;;;;;;;4.70;99.90;;;;;;12397183;28;19961;-92
2021/01/18 20:16:21;;;;;;;;;;;4.70;99.90;;;;;;12426688;28;19926;-91
2021/01/18 20:22:23;;;;;;;;;;;4.70;99.90;;;;;;12412624;28;19936;-91
2021/01/18 20:28:24;;;;;;;;;;;4.60;99.90;;;;;;12401892;28;19937;-92
2021/01/18 20:34:25;;;;;;;;;;;4.40;99.90;;;;;;12405017;28;19929;-92
2021/01/18 20:40:27;;;;;;;;;;;4.40;99.90;;;;;;12396806;28;19976;-92
2021/01/18 20:46:32;;;;;;;;;;;4.40;99.90;;;;;;12398213;28;19934;-92
2021/01/18 20:52:34;;;;;;;;;;;4.20;99.90;;;;;;12402883;28;20368;-93
2021/01/18 20:58:35;;;;;;;;;;;4.20;99.90;;;;;;12397899;28;19933;-91
2021/01/18 21:04:37;;;;;;;;;;;4.20;99.90;;;;;;12402422;28;19936;-92
2021/01/18 21:10:39;;;;;;;;;;;4.30;99.90;;;;;;12397348;28;19930;-92
2021/01/18 21:16:40;;;;;;;;;;;4.20;99.90;;;;;;12401134;28;19934;-92
2021/01/18 21:22:42;;;;;;;;;;;4.10;99.90;;;;;;12415245;28;19929;-91
2021/01/18 21:28:44;;;;;;;;;;;4.20;99.90;;;;;;12398553;28;19932;-91
2021/01/18 21:34:45;;;;;;;;;;;4.30;99.90;;;;;;12397836;28;20397;-92
2021/01/18 21:40:46;;;;;;;;;;;4.10;99.90;;;;;;12396440;28;19933;-91
2021/01/18 21:46:48;;;;;;;;;;;4.30;99.90;;;;;;12395770;28;19941;-92
2021/01/18 21:52:49;;;;;;;;;;;4.40;99.90;;;;;;12390639;28;19937;-92
2021/01/18 21:58:50;;;;;;;;;;;4.30;99.90;;;;;;12425759;28;19926;-92
2021/01/18 22:04:51;;;;;;;;;;;4.20;99.90;;;;;;12396551;28;19953;-91
2021/01/18 22:10:53;;;;;;;;;;;4.20;99.90;;;;;;12396362;28;19933;-92
2021/01/18 22:16:56;;;;;;;;;;;4.10;99.90;;;;;;12397456;28;19926;-92
2021/01/18 22:22:57;;;;;;;;;;;4.10;99.90;;;;;;12403305;28;19945;-92
2021/01/18 22:29:00;;;;;;;;;;;4.00;99.90;;;;;;12400506;28;19933;-92
2021/01/18 22:35:02;;;;;;;;;;;4.10;99.90;;;;;;12392240;28;20381;-91
2021/01/18 22:41:04;;;;;;;;;;;4.20;99.90;;;;;;12396336;28;19932;-92
2021/01/18 22:47:06;;;;;;;;;;;4.30;99.90;;;;;;12392005;28;20378;-92
2021/01/18 22:53:08;;;;;;;;;;;4.50;99.90;;;;;;12392002;28;19967;-92
2021/01/18 22:59:10;;;;;;;;;;;4.40;99.90;;;;;;12394329;28;19956;-92
2021/01/18 23:05:17;;;;;;;;;;;4.30;99.90;;;;;;12423467;28;19988;-91
2021/01/18 23:11:23;;;;;;;;;;;4.30;99.90;;;;;;12396244;28;19934;-91
2021/01/18 23:17:24;;;;;;;;;;;4.40;99.90;;;;;;12421934;28;19925;-91
2021/01/18 23:23:25;;;;;;;;;;;4.30;99.90;;;;;;12403458;28;19929;-91
2021/01/18 23:29:26;;;;;;;;;;;4.30;99.90;;;;;;12407040;28;19934;-91
2021/01/18 23:35:28;;;;;;;;;;;4.40;99.90;;;;;;12389527;28;19932;-91
2021/01/18 23:41:29;;;;;;;;;;;4.30;99.90;;;;;;12388048;28;19932;-91
2021/01/18 23:47:31;;;;;;;;;;;4.30;99.90;;;;;;12387296;28;19955;-91
2021/01/18 23:53:32;;;;;;;;;;;4.40;99.90;;;;;;12389128;28;19976;-91
2021/01/18 23:59:33;;;;;;;;;;;4.40;99.90;;;;;;12404668;28;19937;-92
